sensor_id;sensor_type;location;lat;lon;timestamp;P1;durP1;ratioP1;P2;durP2;ratioP2
67041;SDS011;53949;47.790;18.750;2023-04-08T00:02:26;14.52;;;8.73;;
67041;SDS011;53949;47.790;18.750;2023-04-08T00:05:30;11.68;;;7.28;;
67041;SDS011;53949;47.790;18.750;2023-04-08T00:08:33;13.43;;;7.82;;
67041;SDS011;53949;47.790;18.750;2023-04-08T00:11:36;14.32;;;8.60;;
67041;SDS011;53949;47.790;18.750;2023-04-08T00:14:39;17.52;;;8.85;;
67041;SDS011;53949;47.790;18.750;2023-04-08T00:17:43;15.65;;;8.40;;
67041;SDS011;53949;47.790;18.750;2023-04-08T00:20:46;13.38;;;7.53;;
67041;SDS011;53949;47.790;18.750;2023-04-08T00:23:50;20.33;;;9.07;;
67041;SDS011;53949;47.790;18.750;2023-04-08T00:26:53;15.57;;;8.05;;
67041;SDS011;53949;47.790;18.750;2023-04-08T00:29:56;18.35;;;9.45;;
67041;SDS011;53949;47.790;18.750;2023-04-08T00:33:01;14.25;;;7.70;;
67041;SDS011;53949;47.790;18.750;2023-04-08T00:36:04;10.52;;;6.03;;
67041;SDS011;53949;47.790;18.750;2023-04-08T00:39:08;12.90;;;6.53;;
67041;SDS011;53949;47.790;18.750;2023-04-08T00:42:11;8.70;;;5.65;;
67041;SDS011;53949;47.790;18.750;2023-04-08T00:45:14;10.30;;;5.93;;
67041;SDS011;53949;47.790;18.750;2023-04-08T00:48:19;10.53;;;6.47;;
67041;SDS011;53949;47.790;18.750;2023-04-08T00:51:23;9.35;;;5.60;;
67041;SDS011;53949;47.790;18.750;2023-04-08T00:54:26;10.90;;;6.15;;
67041;SDS011;53949;47.790;18.750;2023-04-08T00:57:29;9.65;;;5.78;;
67041;SDS011;53949;47.790;18.750;2023-04-08T01:00:33;9.13;;;5.80;;
67041;SDS011;53949;47.790;18.750;2023-04-08T01:06:56;9.30;;;5.57;;
67041;SDS011;53949;47.790;18.750;2023-04-08T01:10:11;10.77;;;5.65;;
67041;SDS011;53949;47.790;18.750;2023-04-08T01:13:17;7.25;;;4.82;;
67041;SDS011;53949;47.790;18.750;2023-04-08T01:16:23;8.65;;;5.72;;
67041;SDS011;53949;47.790;18.750;2023-04-08T01:19:35;9.77;;;5.70;;
67041;SDS011;53949;47.790;18.750;2023-04-08T01:26:02;12.60;;;6.25;;
67041;SDS011;53949;47.790;18.750;2023-04-08T01:29:06;8.35;;;5.72;;
67041;SDS011;53949;47.790;18.750;2023-04-08T01:32:12;11.95;;;6.60;;
67041;SDS011;53949;47.790;18.750;2023-04-08T01:35:15;12.88;;;7.03;;
67041;SDS011;53949;47.790;18.750;2023-04-08T01:38:21;12.07;;;6.45;;
67041;SDS011;53949;47.790;18.750;2023-04-08T01:41:27;11.10;;;6.60;;
67041;SDS011;53949;47.790;18.750;2023-04-08T01:44:32;9.35;;;5.75;;
67041;SDS011;53949;47.790;18.750;2023-04-08T01:47:37;10.75;;;6.40;;
67041;SDS011;53949;47.790;18.750;2023-04-08T01:50:42;9.05;;;5.97;;
67041;SDS011;53949;47.790;18.750;2023-04-08T01:53:47;8.85;;;5.65;;
67041;SDS011;53949;47.790;18.750;2023-04-08T01:56:50;9.80;;;5.82;;
67041;SDS011;53949;47.790;18.750;2023-04-08T01:59:58;9.43;;;6.12;;
67041;SDS011;53949;47.790;18.750;2023-04-08T02:03:04;10.20;;;6.15;;
67041;SDS011;53949;47.790;18.750;2023-04-08T02:09:12;9.55;;;5.22;;
67041;SDS011;53949;47.790;18.750;2023-04-08T02:12:16;9.68;;;6.43;;
67041;SDS011;53949;47.790;18.750;2023-04-08T02:15:19;10.50;;;6.12;;
67041;SDS011;53949;47.790;18.750;2023-04-08T02:18:25;10.07;;;5.62;;
67041;SDS011;53949;47.790;18.750;2023-04-08T02:21:42;8.55;;;5.32;;
67041;SDS011;53949;47.790;18.750;2023-04-08T02:24:48;7.82;;;5.25;;
67041;SDS011;53949;47.790;18.750;2023-04-08T02:27:51;9.57;;;5.25;;
67041;SDS011;53949;47.790;18.750;2023-04-08T02:30:56;10.02;;;5.53;;
67041;SDS011;53949;47.790;18.750;2023-04-08T02:34:02;11.20;;;6.30;;
67041;SDS011;53949;47.790;18.750;2023-04-08T02:37:08;9.07;;;5.93;;
67041;SDS011;53949;47.790;18.750;2023-04-08T02:40:25;8.30;;;4.85;;
67041;SDS011;53949;47.790;18.750;2023-04-08T02:43:30;10.77;;;5.72;;
67041;SDS011;53949;47.790;18.750;2023-04-08T02:46:33;9.82;;;6.12;;
67041;SDS011;53949;47.790;18.750;2023-04-08T02:49:37;9.77;;;5.43;;
67041;SDS011;53949;47.790;18.750;2023-04-08T02:52:40;11.00;;;6.00;;
67041;SDS011;53949;47.790;18.750;2023-04-08T02:55:45;10.73;;;6.28;;
67041;SDS011;53949;47.790;18.750;2023-04-08T02:58:49;9.18;;;5.82;;
67041;SDS011;53949;47.790;18.750;2023-04-08T03:04:58;8.55;;;5.18;;
67041;SDS011;53949;47.790;18.750;2023-04-08T03:08:02;10.77;;;6.55;;
67041;SDS011;53949;47.790;18.750;2023-04-08T03:11:05;13.40;;;6.47;;
67041;SDS011;53949;47.790;18.750;2023-04-08T03:14:08;11.02;;;6.35;;
67041;SDS011;53949;47.790;18.750;2023-04-08T03:17:11;10.40;;;6.78;;
67041;SDS011;53949;47.790;18.750;2023-04-08T03:20:15;8.25;;;6.03;;
67041;SDS011;53949;47.790;18.750;2023-04-08T03:23:18;10.13;;;5.70;;
67041;SDS011;53949;47.790;18.750;2023-04-08T03:26:21;11.05;;;6.47;;
67041;SDS011;53949;47.790;18.750;2023-04-08T03:29:24;10.32;;;6.78;;
67041;SDS011;53949;47.790;18.750;2023-04-08T03:32:28;11.65;;;6.78;;
67041;SDS011;53949;47.790;18.750;2023-04-08T03:35:31;11.45;;;6.40;;
67041;SDS011;53949;47.790;18.750;2023-04-08T03:38:35;11.43;;;6.22;;
67041;SDS011;53949;47.790;18.750;2023-04-08T03:41:38;12.15;;;6.93;;
67041;SDS011;53949;47.790;18.750;2023-04-08T03:44:41;8.88;;;6.20;;
67041;SDS011;53949;47.790;18.750;2023-04-08T03:47:44;11.93;;;6.53;;
67041;SDS011;53949;47.790;18.750;2023-04-08T03:50:47;10.80;;;5.97;;
67041;SDS011;53949;47.790;18.750;2023-04-08T03:53:50;11.60;;;6.05;;
67041;SDS011;53949;47.790;18.750;2023-04-08T03:56:54;9.50;;;5.97;;
67041;SDS011;53949;47.790;18.750;2023-04-08T03:59:57;8.60;;;5.32;;
67041;SDS011;53949;47.790;18.750;2023-04-08T04:03:00;11.40;;;6.87;;
67041;SDS011;53949;47.790;18.750;2023-04-08T04:06:04;11.85;;;6.35;;
67041;SDS011;53949;47.790;18.750;2023-04-08T04:09:07;11.18;;;6.40;;
67041;SDS011;53949;47.790;18.750;2023-04-08T04:12:10;12.88;;;6.90;;
67041;SDS011;53949;47.790;18.750;2023-04-08T04:15:13;10.45;;;6.37;;
67041;SDS011;53949;47.790;18.750;2023-04-08T04:18:17;11.95;;;6.32;;
67041;SDS011;53949;47.790;18.750;2023-04-08T04:21:20;11.80;;;6.70;;
67041;SDS011;53949;47.790;18.750;2023-04-08T04:24:23;12.88;;;7.60;;
67041;SDS011;53949;47.790;18.750;2023-04-08T04:27:26;11.70;;;7.30;;
67041;SDS011;53949;47.790;18.750;2023-04-08T04:30:29;12.55;;;6.75;;
67041;SDS011;53949;47.790;18.750;2023-04-08T04:33:33;12.40;;;6.85;;
67041;SDS011;53949;47.790;18.750;2023-04-08T04:36:36;13.27;;;7.60;;
67041;SDS011;53949;47.790;18.750;2023-04-08T04:39:39;15.98;;;7.85;;
67041;SDS011;53949;47.790;18.750;2023-04-08T04:42:42;15.02;;;8.55;;
67041;SDS011;53949;47.790;18.750;2023-04-08T04:45:45;12.63;;;7.57;;
67041;SDS011;53949;47.790;18.750;2023-04-08T04:48:49;15.07;;;8.23;;
67041;SDS011;53949;47.790;18.750;2023-04-08T04:51:53;15.55;;;8.68;;
67041;SDS011;53949;47.790;18.750;2023-04-08T04:54:56;14.93;;;7.95;;
67041;SDS011;53949;47.790;18.750;2023-04-08T04:58:00;14.02;;;7.62;;
67041;SDS011;53949;47.790;18.750;2023-04-08T05:01:03;16.10;;;7.72;;
67041;SDS011;53949;47.790;18.750;2023-04-08T05:04:08;17.52;;;9.07;;
67041;SDS011;53949;47.790;18.750;2023-04-08T05:07:11;20.43;;;10.33;;
67041;SDS011;53949;47.790;18.750;2023-04-08T05:10:14;20.27;;;9.85;;
67041;SDS011;53949;47.790;18.750;2023-04-08T05:13:17;21.92;;;10.57;;
67041;SDS011;53949;47.790;18.750;2023-04-08T05:16:20;22.42;;;9.98;;
67041;SDS011;53949;47.790;18.750;2023-04-08T05:19:24;18.60;;;9.93;;
67041;SDS011;53949;47.790;18.750;2023-04-08T05:22:27;22.42;;;10.75;;
67041;SDS011;53949;47.790;18.750;2023-04-08T05:25:30;22.27;;;10.85;;
67041;SDS011;53949;47.790;18.750;2023-04-08T05:28:33;20.10;;;10.80;;
67041;SDS011;53949;47.790;18.750;2023-04-08T05:31:37;24.92;;;10.93;;
67041;SDS011;53949;47.790;18.750;2023-04-08T05:34:40;19.77;;;10.43;;
67041;SDS011;53949;47.790;18.750;2023-04-08T05:37:43;22.80;;;11.40;;
67041;SDS011;53949;47.790;18.750;2023-04-08T05:40:46;23.17;;;11.60;;
67041;SDS011;53949;47.790;18.750;2023-04-08T05:43:50;24.98;;;11.63;;
67041;SDS011;53949;47.790;18.750;2023-04-08T05:46:53;23.33;;;11.23;;
67041;SDS011;53949;47.790;18.750;2023-04-08T05:53:02;24.60;;;11.93;;
67041;SDS011;53949;47.790;18.750;2023-04-08T05:56:05;22.55;;;11.52;;
67041;SDS011;53949;47.790;18.750;2023-04-08T05:59:08;21.90;;;11.35;;
67041;SDS011;53949;47.790;18.750;2023-04-08T06:02:12;22.90;;;11.27;;
67041;SDS011;53949;47.790;18.750;2023-04-08T06:05:15;21.85;;;10.77;;
67041;SDS011;53949;47.790;18.750;2023-04-08T06:08:18;19.45;;;10.23;;
67041;SDS011;53949;47.790;18.750;2023-04-08T06:11:21;24.20;;;11.45;;
67041;SDS011;53949;47.790;18.750;2023-04-08T06:14:24;24.83;;;12.27;;
67041;SDS011;53949;47.790;18.750;2023-04-08T06:17:27;27.00;;;12.77;;
67041;SDS011;53949;47.790;18.750;2023-04-08T06:20:30;26.10;;;12.85;;
67041;SDS011;53949;47.790;18.750;2023-04-08T06:23:34;20.25;;;10.95;;
67041;SDS011;53949;47.790;18.750;2023-04-08T06:26:38;23.10;;;11.70;;
67041;SDS011;53949;47.790;18.750;2023-04-08T06:29:41;25.25;;;12.85;;
67041;SDS011;53949;47.790;18.750;2023-04-08T06:32:44;21.83;;;11.30;;
67041;SDS011;53949;47.790;18.750;2023-04-08T06:35:50;23.10;;;11.07;;
67041;SDS011;53949;47.790;18.750;2023-04-08T06:38:53;22.90;;;11.70;;
67041;SDS011;53949;47.790;18.750;2023-04-08T06:41:56;22.13;;;11.88;;
67041;SDS011;53949;47.790;18.750;2023-04-08T06:45:00;21.87;;;11.55;;
67041;SDS011;53949;47.790;18.750;2023-04-08T06:48:03;23.58;;;12.15;;
67041;SDS011;53949;47.790;18.750;2023-04-08T06:51:08;23.10;;;10.93;;
67041;SDS011;53949;47.790;18.750;2023-04-08T06:54:11;24.25;;;11.90;;
67041;SDS011;53949;47.790;18.750;2023-04-08T06:57:14;20.83;;;10.95;;
67041;SDS011;53949;47.790;18.750;2023-04-08T07:00:18;24.87;;;11.68;;
67041;SDS011;53949;47.790;18.750;2023-04-08T07:03:21;25.02;;;11.77;;
67041;SDS011;53949;47.790;18.750;2023-04-08T07:06:25;20.37;;;10.82;;
67041;SDS011;53949;47.790;18.750;2023-04-08T07:09:28;20.52;;;10.50;;
67041;SDS011;53949;47.790;18.750;2023-04-08T07:12:31;19.62;;;10.25;;
67041;SDS011;53949;47.790;18.750;2023-04-08T07:15:34;19.33;;;10.20;;
67041;SDS011;53949;47.790;18.750;2023-04-08T07:18:37;17.23;;;9.07;;
67041;SDS011;53949;47.790;18.750;2023-04-08T07:21:40;17.60;;;8.90;;
67041;SDS011;53949;47.790;18.750;2023-04-08T07:24:45;15.90;;;8.70;;
67041;SDS011;53949;47.790;18.750;2023-04-08T07:27:52;14.98;;;8.68;;
67041;SDS011;53949;47.790;18.750;2023-04-08T07:31:14;13.82;;;8.48;;
67041;SDS011;53949;47.790;18.750;2023-04-08T07:34:18;12.93;;;7.85;;
67041;SDS011;53949;47.790;18.750;2023-04-08T07:37:22;13.77;;;8.18;;
67041;SDS011;53949;47.790;18.750;2023-04-08T07:40:25;13.20;;;7.43;;
67041;SDS011;53949;47.790;18.750;2023-04-08T07:43:29;11.55;;;7.07;;
67041;SDS011;53949;47.790;18.750;2023-04-08T07:46:35;10.10;;;6.37;;
67041;SDS011;53949;47.790;18.750;2023-04-08T07:49:40;13.30;;;7.47;;
67041;SDS011;53949;47.790;18.750;2023-04-08T07:52:43;12.68;;;7.40;;
67041;SDS011;53949;47.790;18.750;2023-04-08T07:55:47;13.45;;;7.32;;
67041;SDS011;53949;47.790;18.750;2023-04-08T07:58:50;12.02;;;7.05;;
67041;SDS011;53949;47.790;18.750;2023-04-08T08:01:55;13.27;;;7.25;;
67041;SDS011;53949;47.790;18.750;2023-04-08T08:04:59;12.77;;;7.47;;
67041;SDS011;53949;47.790;18.750;2023-04-08T08:08:05;13.73;;;7.50;;
67041;SDS011;53949;47.790;18.750;2023-04-08T08:11:09;12.83;;;7.60;;
67041;SDS011;53949;47.790;18.750;2023-04-08T08:14:13;11.75;;;7.03;;
67041;SDS011;53949;47.790;18.750;2023-04-08T08:17:17;11.75;;;7.37;;
67041;SDS011;53949;47.790;18.750;2023-04-08T08:20:20;14.80;;;8.77;;
67041;SDS011;53949;47.790;18.750;2023-04-08T08:23:23;13.13;;;7.30;;
67041;SDS011;53949;47.790;18.750;2023-04-08T08:26:26;14.07;;;7.37;;
67041;SDS011;53949;47.790;18.750;2023-04-08T08:29:30;10.93;;;6.80;;
67041;SDS011;53949;47.790;18.750;2023-04-08T08:32:33;9.95;;;6.68;;
67041;SDS011;53949;47.790;18.750;2023-04-08T08:35:37;11.88;;;7.00;;
67041;SDS011;53949;47.790;18.750;2023-04-08T08:38:40;13.50;;;7.00;;
67041;SDS011;53949;47.790;18.750;2023-04-08T08:41:43;12.50;;;6.57;;
67041;SDS011;53949;47.790;18.750;2023-04-08T08:44:47;11.43;;;7.25;;
67041;SDS011;53949;47.790;18.750;2023-04-08T08:47:51;10.57;;;7.05;;
67041;SDS011;53949;47.790;18.750;2023-04-08T08:50:54;11.75;;;7.05;;
67041;SDS011;53949;47.790;18.750;2023-04-08T08:54:00;8.50;;;5.37;;
67041;SDS011;53949;47.790;18.750;2023-04-08T08:57:14;9.07;;;6.07;;
67041;SDS011;53949;47.790;18.750;2023-04-08T09:00:29;8.20;;;5.30;;
67041;SDS011;53949;47.790;18.750;2023-04-08T09:03:36;9.25;;;5.37;;
67041;SDS011;53949;47.790;18.750;2023-04-08T09:06:39;8.30;;;5.25;;
67041;SDS011;53949;47.790;18.750;2023-04-08T09:09:49;6.90;;;4.85;;
67041;SDS011;53949;47.790;18.750;2023-04-08T09:12:53;6.32;;;3.97;;
67041;SDS011;53949;47.790;18.750;2023-04-08T09:16:03;6.12;;;4.35;;
67041;SDS011;53949;47.790;18.750;2023-04-08T09:19:09;7.10;;;4.32;;
67041;SDS011;53949;47.790;18.750;2023-04-08T09:22:13;6.95;;;4.55;;
67041;SDS011;53949;47.790;18.750;2023-04-08T09:25:50;7.97;;;4.50;;
67041;SDS011;53949;47.790;18.750;2023-04-08T09:29:04;7.95;;;5.25;;
67041;SDS011;53949;47.790;18.750;2023-04-08T09:32:45;6.80;;;4.68;;
67041;SDS011;53949;47.790;18.750;2023-04-08T09:35:51;8.68;;;4.75;;
67041;SDS011;53949;47.790;18.750;2023-04-08T09:38:54;6.57;;;4.72;;
67041;SDS011;53949;47.790;18.750;2023-04-08T09:41:58;8.85;;;5.15;;
67041;SDS011;53949;47.790;18.750;2023-04-08T09:45:05;7.12;;;5.00;;
67041;SDS011;53949;47.790;18.750;2023-04-08T09:48:11;8.57;;;5.47;;
67041;SDS011;53949;47.790;18.750;2023-04-08T09:51:18;6.90;;;5.07;;
67041;SDS011;53949;47.790;18.750;2023-04-08T09:54:21;7.62;;;5.18;;
67041;SDS011;53949;47.790;18.750;2023-04-08T10:00:36;8.18;;;5.37;;
67041;SDS011;53949;47.790;18.750;2023-04-08T10:03:45;10.40;;;6.03;;
67041;SDS011;53949;47.790;18.750;2023-04-08T10:06:52;8.70;;;6.03;;
67041;SDS011;53949;47.790;18.750;2023-04-08T10:09:57;10.05;;;5.87;;
67041;SDS011;53949;47.790;18.750;2023-04-08T10:13:00;7.28;;;5.10;;
67041;SDS011;53949;47.790;18.750;2023-04-08T10:16:23;5.93;;;4.22;;
67041;SDS011;53949;47.790;18.750;2023-04-08T10:19:39;7.68;;;5.22;;
67041;SDS011;53949;47.790;18.750;2023-04-08T10:22:46;7.05;;;5.25;;
67041;SDS011;53949;47.790;18.750;2023-04-08T10:25:50;9.50;;;6.95;;
67041;SDS011;53949;47.790;18.750;2023-04-08T10:28:53;10.00;;;6.50;;
67041;SDS011;53949;47.790;18.750;2023-04-08T10:31:57;9.63;;;6.03;;
67041;SDS011;53949;47.790;18.750;2023-04-08T10:35:01;10.55;;;6.15;;
67041;SDS011;53949;47.790;18.750;2023-04-08T10:38:04;10.02;;;6.82;;
67041;SDS011;53949;47.790;18.750;2023-04-08T10:41:10;7.45;;;6.07;;
67041;SDS011;53949;47.790;18.750;2023-04-08T10:44:19;8.82;;;6.07;;
67041;SDS011;53949;47.790;18.750;2023-04-08T10:47:24;11.07;;;7.12;;
67041;SDS011;53949;47.790;18.750;2023-04-08T10:50:30;8.05;;;6.30;;
67041;SDS011;53949;47.790;18.750;2023-04-08T10:53:35;11.38;;;7.43;;
67041;SDS011;53949;47.790;18.750;2023-04-08T10:56:47;11.55;;;7.70;;
67041;SDS011;53949;47.790;18.750;2023-04-08T10:59:52;8.75;;;6.80;;
67041;SDS011;53949;47.790;18.750;2023-04-08T11:02:54;8.52;;;6.60;;
67041;SDS011;53949;47.790;18.750;2023-04-08T11:06:02;12.23;;;7.45;;
67041;SDS011;53949;47.790;18.750;2023-04-08T11:09:06;12.52;;;7.72;;
67041;SDS011;53949;47.790;18.750;2023-04-08T11:12:09;11.38;;;7.65;;
67041;SDS011;53949;47.790;18.750;2023-04-08T11:15:13;12.50;;;7.53;;
67041;SDS011;53949;47.790;18.750;2023-04-08T11:18:18;11.57;;;8.15;;
67041;SDS011;53949;47.790;18.750;2023-04-08T11:21:24;12.40;;;8.15;;
67041;SDS011;53949;47.790;18.750;2023-04-08T11:24:31;14.70;;;9.30;;
67041;SDS011;53949;47.790;18.750;2023-04-08T11:27:34;13.65;;;8.85;;
67041;SDS011;53949;47.790;18.750;2023-04-08T11:30:38;12.60;;;8.65;;
67041;SDS011;53949;47.790;18.750;2023-04-08T11:33:46;12.98;;;8.63;;
67041;SDS011;53949;47.790;18.750;2023-04-08T11:36:51;12.65;;;8.27;;
67041;SDS011;53949;47.790;18.750;2023-04-08T11:39:54;12.07;;;7.47;;
67041;SDS011;53949;47.790;18.750;2023-04-08T11:42:58;10.18;;;7.85;;
67041;SDS011;53949;47.790;18.750;2023-04-08T11:46:11;13.45;;;9.63;;
67041;SDS011;53949;47.790;18.750;2023-04-08T11:49:16;10.45;;;8.25;;
67041;SDS011;53949;47.790;18.750;2023-04-08T11:52:21;12.55;;;8.23;;
67041;SDS011;53949;47.790;18.750;2023-04-08T11:55:29;12.50;;;8.37;;
67041;SDS011;53949;47.790;18.750;2023-04-08T11:58:33;13.23;;;8.95;;
67041;SDS011;53949;47.790;18.750;2023-04-08T12:01:43;12.55;;;8.33;;
67041;SDS011;53949;47.790;18.750;2023-04-08T12:04:46;10.45;;;7.93;;
67041;SDS011;53949;47.790;18.750;2023-04-08T12:07:49;17.12;;;10.35;;
67041;SDS011;53949;47.790;18.750;2023-04-08T12:10:54;14.98;;;9.30;;
67041;SDS011;53949;47.790;18.750;2023-04-08T12:14:05;14.27;;;9.38;;
67041;SDS011;53949;47.790;18.750;2023-04-08T12:17:09;13.88;;;8.85;;
67041;SDS011;53949;47.790;18.750;2023-04-08T12:20:12;17.55;;;10.60;;
67041;SDS011;53949;47.790;18.750;2023-04-08T12:23:16;22.15;;;14.23;;
67041;SDS011;53949;47.790;18.750;2023-04-08T12:26:19;29.08;;;16.52;;
67041;SDS011;53949;47.790;18.750;2023-04-08T12:29:22;13.38;;;8.80;;
67041;SDS011;53949;47.790;18.750;2023-04-08T12:32:25;13.25;;;9.48;;
67041;SDS011;53949;47.790;18.750;2023-04-08T12:35:28;9.95;;;7.50;;
67041;SDS011;53949;47.790;18.750;2023-04-08T12:38:32;12.10;;;7.97;;
67041;SDS011;53949;47.790;18.750;2023-04-08T12:41:35;12.73;;;7.87;;
67041;SDS011;53949;47.790;18.750;2023-04-08T12:44:38;12.13;;;6.97;;
67041;SDS011;53949;47.790;18.750;2023-04-08T12:47:42;9.02;;;6.95;;
67041;SDS011;53949;47.790;18.750;2023-04-08T12:50:45;11.10;;;7.22;;
67041;SDS011;53949;47.790;18.750;2023-04-08T12:53:48;9.18;;;6.95;;
67041;SDS011;53949;47.790;18.750;2023-04-08T12:56:51;9.43;;;7.28;;
67041;SDS011;53949;47.790;18.750;2023-04-08T12:59:55;10.88;;;7.65;;
67041;SDS011;53949;47.790;18.750;2023-04-08T13:02:59;11.40;;;7.50;;
67041;SDS011;53949;47.790;18.750;2023-04-08T13:06:04;13.73;;;8.30;;
67041;SDS011;53949;47.790;18.750;2023-04-08T13:09:07;11.52;;;8.13;;
67041;SDS011;53949;47.790;18.750;2023-04-08T13:12:10;10.70;;;7.78;;
67041;SDS011;53949;47.790;18.750;2023-04-08T13:15:13;13.07;;;8.13;;
67041;SDS011;53949;47.790;18.750;2023-04-08T13:18:16;9.63;;;7.45;;
67041;SDS011;53949;47.790;18.750;2023-04-08T13:21:19;11.25;;;8.20;;
67041;SDS011;53949;47.790;18.750;2023-04-08T13:24:23;9.00;;;6.93;;
67041;SDS011;53949;47.790;18.750;2023-04-08T13:27:26;9.48;;;6.72;;
67041;SDS011;53949;47.790;18.750;2023-04-08T13:30:29;10.88;;;7.85;;
67041;SDS011;53949;47.790;18.750;2023-04-08T13:33:32;8.50;;;6.87;;
67041;SDS011;53949;47.790;18.750;2023-04-08T13:36:35;11.55;;;7.00;;
67041;SDS011;53949;47.790;18.750;2023-04-08T13:39:38;9.57;;;7.03;;
67041;SDS011;53949;47.790;18.750;2023-04-08T13:42:42;10.02;;;7.40;;
67041;SDS011;53949;47.790;18.750;2023-04-08T13:45:45;9.68;;;7.37;;
67041;SDS011;53949;47.790;18.750;2023-04-08T13:48:48;12.23;;;7.90;;
67041;SDS011;53949;47.790;18.750;2023-04-08T13:51:52;10.25;;;7.25;;
67041;SDS011;53949;47.790;18.750;2023-04-08T13:54:55;9.07;;;6.90;;
67041;SDS011;53949;47.790;18.750;2023-04-08T13:57:58;9.52;;;7.35;;
67041;SDS011;53949;47.790;18.750;2023-04-08T14:01:02;11.70;;;7.60;;
67041;SDS011;53949;47.790;18.750;2023-04-08T14:04:05;9.00;;;7.05;;
67041;SDS011;53949;47.790;18.750;2023-04-08T14:07:08;12.20;;;8.32;;
67041;SDS011;53949;47.790;18.750;2023-04-08T14:10:11;11.30;;;7.90;;
67041;SDS011;53949;47.790;18.750;2023-04-08T14:13:16;12.15;;;8.40;;
67041;SDS011;53949;47.790;18.750;2023-04-08T14:16:19;18.50;;;11.63;;
67041;SDS011;53949;47.790;18.750;2023-04-08T14:19:23;12.88;;;8.98;;
67041;SDS011;53949;47.790;18.750;2023-04-08T14:22:26;10.50;;;8.05;;
67041;SDS011;53949;47.790;18.750;2023-04-08T14:25:29;11.07;;;7.90;;
67041;SDS011;53949;47.790;18.750;2023-04-08T14:28:33;14.27;;;9.63;;
67041;SDS011;53949;47.790;18.750;2023-04-08T14:31:36;10.38;;;7.72;;
67041;SDS011;53949;47.790;18.750;2023-04-08T14:34:39;13.15;;;9.38;;
67041;SDS011;53949;47.790;18.750;2023-04-08T14:37:42;13.02;;;9.80;;
67041;SDS011;53949;47.790;18.750;2023-04-08T14:40:45;11.57;;;8.10;;
67041;SDS011;53949;47.790;18.750;2023-04-08T14:43:48;11.12;;;7.85;;
67041;SDS011;53949;47.790;18.750;2023-04-08T14:46:52;12.37;;;9.05;;
67041;SDS011;53949;47.790;18.750;2023-04-08T14:49:55;10.45;;;8.05;;
67041;SDS011;53949;47.790;18.750;2023-04-08T14:52:58;12.05;;;7.95;;
67041;SDS011;53949;47.790;18.750;2023-04-08T14:56:01;11.40;;;8.07;;
67041;SDS011;53949;47.790;18.750;2023-04-08T14:59:04;11.57;;;7.78;;
67041;SDS011;53949;47.790;18.750;2023-04-08T15:02:07;12.43;;;7.32;;
67041;SDS011;53949;47.790;18.750;2023-04-08T15:05:12;12.60;;;7.95;;
67041;SDS011;53949;47.790;18.750;2023-04-08T15:08:15;10.57;;;7.35;;
67041;SDS011;53949;47.790;18.750;2023-04-08T15:11:19;10.15;;;7.18;;
67041;SDS011;53949;47.790;18.750;2023-04-08T15:14:24;11.80;;;8.07;;
67041;SDS011;53949;47.790;18.750;2023-04-08T15:17:27;10.38;;;7.30;;
67041;SDS011;53949;47.790;18.750;2023-04-08T15:20:30;10.35;;;7.43;;
67041;SDS011;53949;47.790;18.750;2023-04-08T15:23:33;11.43;;;7.62;;
67041;SDS011;53949;47.790;18.750;2023-04-08T15:26:37;9.93;;;7.43;;
67041;SDS011;53949;47.790;18.750;2023-04-08T15:29:40;12.80;;;8.45;;
67041;SDS011;53949;47.790;18.750;2023-04-08T15:32:44;16.90;;;10.57;;
67041;SDS011;53949;47.790;18.750;2023-04-08T15:35:47;10.68;;;7.90;;
67041;SDS011;53949;47.790;18.750;2023-04-08T15:38:51;10.25;;;7.62;;
67041;SDS011;53949;47.790;18.750;2023-04-08T15:41:54;10.05;;;7.82;;
67041;SDS011;53949;47.790;18.750;2023-04-08T15:44:58;13.13;;;8.15;;
67041;SDS011;53949;47.790;18.750;2023-04-08T15:48:01;12.63;;;8.57;;
67041;SDS011;53949;47.790;18.750;2023-04-08T15:51:07;13.30;;;9.05;;
67041;SDS011;53949;47.790;18.750;2023-04-08T15:54:11;11.05;;;7.80;;
67041;SDS011;53949;47.790;18.750;2023-04-08T15:57:14;12.13;;;8.10;;
67041;SDS011;53949;47.790;18.750;2023-04-08T16:00:18;11.80;;;7.70;;
67041;SDS011;53949;47.790;18.750;2023-04-08T16:03:21;11.63;;;7.72;;
67041;SDS011;53949;47.790;18.750;2023-04-08T16:06:29;10.68;;;7.47;;
67041;SDS011;53949;47.790;18.750;2023-04-08T16:09:32;11.05;;;7.75;;
67041;SDS011;53949;47.790;18.750;2023-04-08T16:12:35;8.93;;;6.70;;
67041;SDS011;53949;47.790;18.750;2023-04-08T16:15:38;12.05;;;8.10;;
67041;SDS011;53949;47.790;18.750;2023-04-08T16:18:41;13.88;;;9.25;;
67041;SDS011;53949;47.790;18.750;2023-04-08T16:21:49;12.55;;;8.60;;
67041;SDS011;53949;47.790;18.750;2023-04-08T16:24:51;13.45;;;9.10;;
67041;SDS011;53949;47.790;18.750;2023-04-08T16:27:55;15.23;;;8.90;;
67041;SDS011;53949;47.790;18.750;2023-04-08T16:30:58;14.18;;;9.57;;
67041;SDS011;53949;47.790;18.750;2023-04-08T16:34:01;16.15;;;9.10;;
67041;SDS011;53949;47.790;18.750;2023-04-08T16:37:04;13.15;;;8.75;;
67041;SDS011;53949;47.790;18.750;2023-04-08T16:40:07;13.52;;;9.68;;
67041;SDS011;53949;47.790;18.750;2023-04-08T16:43:11;12.65;;;9.50;;
67041;SDS011;53949;47.790;18.750;2023-04-08T16:46:16;15.10;;;10.15;;
67041;SDS011;53949;47.790;18.750;2023-04-08T16:49:20;13.57;;;9.57;;
67041;SDS011;53949;47.790;18.750;2023-04-08T16:52:24;17.00;;;10.33;;
67041;SDS011;53949;47.790;18.750;2023-04-08T16:55:30;14.18;;;9.23;;
67041;SDS011;53949;47.790;18.750;2023-04-08T16:58:35;16.17;;;9.90;;
67041;SDS011;53949;47.790;18.750;2023-04-08T17:01:39;15.30;;;9.15;;
67041;SDS011;53949;47.790;18.750;2023-04-08T17:04:43;15.35;;;9.63;;
67041;SDS011;53949;47.790;18.750;2023-04-08T17:07:46;13.80;;;9.30;;
67041;SDS011;53949;47.790;18.750;2023-04-08T17:10:49;10.10;;;7.30;;
67041;SDS011;53949;47.790;18.750;2023-04-08T17:13:52;10.90;;;7.37;;
67041;SDS011;53949;47.790;18.750;2023-04-08T17:16:55;10.18;;;6.53;;
67041;SDS011;53949;47.790;18.750;2023-04-08T17:19:59;8.13;;;5.82;;
67041;SDS011;53949;47.790;18.750;2023-04-08T17:23:02;9.10;;;6.03;;
67041;SDS011;53949;47.790;18.750;2023-04-08T17:26:05;7.82;;;5.95;;
67041;SDS011;53949;47.790;18.750;2023-04-08T17:29:09;8.70;;;5.87;;
67041;SDS011;53949;47.790;18.750;2023-04-08T17:32:12;7.68;;;5.78;;
67041;SDS011;53949;47.790;18.750;2023-04-08T17:35:15;8.38;;;5.60;;
67041;SDS011;53949;47.790;18.750;2023-04-08T17:38:18;8.75;;;6.12;;
67041;SDS011;53949;47.790;18.750;2023-04-08T17:41:23;8.35;;;6.00;;
67041;SDS011;53949;47.790;18.750;2023-04-08T17:44:41;7.15;;;5.53;;
67041;SDS011;53949;47.790;18.750;2023-04-08T17:47:47;9.32;;;5.40;;
67041;SDS011;53949;47.790;18.750;2023-04-08T17:50:54;10.68;;;6.65;;
67041;SDS011;53949;47.790;18.750;2023-04-08T17:54:01;10.45;;;6.53;;
67041;SDS011;53949;47.790;18.750;2023-04-08T17:57:04;9.60;;;6.75;;
67041;SDS011;53949;47.790;18.750;2023-04-08T18:00:07;10.05;;;6.37;;
67041;SDS011;53949;47.790;18.750;2023-04-08T18:03:10;8.40;;;5.65;;
67041;SDS011;53949;47.790;18.750;2023-04-08T18:06:14;9.05;;;5.70;;
67041;SDS011;53949;47.790;18.750;2023-04-08T18:09:17;7.43;;;5.78;;
67041;SDS011;53949;47.790;18.750;2023-04-08T18:12:20;8.73;;;6.20;;
67041;SDS011;53949;47.790;18.750;2023-04-08T18:15:23;7.25;;;5.80;;
67041;SDS011;53949;47.790;18.750;2023-04-08T18:18:27;9.30;;;6.07;;
67041;SDS011;53949;47.790;18.750;2023-04-08T18:21:30;10.30;;;6.72;;